createdAt,value
2023-03-19T00:00:46.015Z,62.37
2023-03-19T00:03:13.354Z,75.93
2023-03-19T00:05:40.658Z,84.30
2023-03-19T00:08:07.952Z,90.67
2023-03-19T00:10:38.694Z,75.97
2023-03-19T00:13:05.976Z,84.40
2023-03-19T00:15:33.465Z,87.27
2023-03-19T00:18:00.866Z,79.30
2023-03-19T00:20:28.466Z,74.13
2023-03-19T00:22:56.072Z,75.30
2023-03-19T00:25:23.805Z,62.87
2023-03-19T00:27:52.758Z,79.13
2023-03-19T00:30:20.049Z,74.50
2023-03-19T00:32:47.380Z,66.50
2023-03-19T00:35:14.867Z,50.87
2023-03-19T00:37:43.155Z,64.07
2023-03-19T00:40:11.705Z,69.47
2023-03-19T00:42:39.988Z,61.17
2023-03-19T00:45:07.747Z,55.70
2023-03-19T00:47:36.056Z,69.70
2023-03-19T00:50:04.482Z,50.63
2023-03-19T00:52:32.054Z,56.13
2023-03-19T00:54:59.332Z,56.13
2023-03-19T00:57:27.018Z,60.10
2023-03-19T00:59:54.399Z,65.00
2023-03-19T01:02:21.661Z,57.73
2023-03-19T01:04:49.676Z,75.63
2023-03-19T01:07:17.070Z,68.70
2023-03-19T01:09:44.381Z,71.27
2023-03-19T01:12:11.682Z,57.23
2023-03-19T01:14:39.262Z,69.60
2023-03-19T01:17:06.783Z,55.90
2023-03-19T01:19:34.491Z,64.23
2023-03-19T01:22:02.180Z,61.07
2023-03-19T01:24:31.427Z,64.13
2023-03-19T01:26:59.024Z,65.13
2023-03-19T01:29:34.177Z,56.17
2023-03-19T01:32:10.598Z,55.53
2023-03-19T01:35:13.123Z,50.30
2023-03-19T01:37:40.571Z,45.57
2023-03-19T01:40:09.488Z,50.17
2023-03-19T01:42:51.474Z,53.67
2023-03-19T01:45:38.699Z,59.43
2023-03-19T01:48:38.800Z,64.53
2023-03-19T01:51:11.585Z,65.93
2023-03-19T01:54:12.240Z,59.13
2023-03-19T01:56:48.595Z,64.43
2023-03-19T01:59:37.358Z,84.73
2023-03-19T02:02:20.235Z,79.90
2023-03-19T02:04:49.681Z,70.37
2023-03-19T02:07:17.487Z,68.97
2023-03-19T02:09:45.325Z,69.07
2023-03-19T02:12:13.340Z,73.83
2023-03-19T02:14:40.842Z,63.80
2023-03-19T02:17:08.569Z,71.70
2023-03-19T02:19:42.922Z,81.47
2023-03-19T02:22:11.849Z,63.27
2023-03-19T02:24:42.177Z,70.57
2023-03-19T02:27:13.738Z,66.00
2023-03-19T02:29:46.467Z,63.50
2023-03-19T02:32:14.815Z,64.30
2023-03-19T02:34:44.511Z,53.00
2023-03-19T02:37:15.425Z,51.20
2023-03-19T02:39:51.284Z,54.63
2023-03-19T02:42:19.987Z,62.73
2023-03-19T02:44:47.791Z,48.73
2023-03-19T02:47:15.494Z,52.53
2023-03-19T02:49:42.789Z,55.07
2023-03-19T02:52:10.718Z,60.13
2023-03-19T02:54:37.997Z,56.77
2023-03-19T02:57:05.951Z,48.23
2023-03-19T02:59:33.947Z,53.07
2023-03-19T03:02:01.453Z,63.20
2023-03-19T03:04:29.228Z,54.87
2023-03-19T03:06:56.579Z,59.67
2023-03-19T03:09:24.070Z,54.87
2023-03-19T03:11:51.611Z,56.17
2023-03-19T03:14:19.040Z,50.57
2023-03-19T03:16:46.414Z,51.47
2023-03-19T03:19:13.808Z,42.00
2023-03-19T03:21:42.514Z,48.67
2023-03-19T03:24:10.970Z,50.77
2023-03-19T03:26:39.027Z,67.20
2023-03-19T03:29:07.210Z,53.60
2023-03-19T03:31:34.985Z,51.30
2023-03-19T03:34:02.720Z,61.87
2023-03-19T03:36:30.098Z,61.63
2023-03-19T03:38:57.571Z,54.83
2023-03-19T03:41:25.771Z,56.67
2023-03-19T03:43:53.574Z,80.07
2023-03-19T03:46:20.918Z,55.13
2023-03-19T03:48:51.392Z,57.47
2023-03-19T03:51:19.477Z,54.10
2023-03-19T03:53:46.950Z,60.80
2023-03-19T03:56:14.826Z,55.33
2023-03-19T03:58:42.221Z,53.03
2023-03-19T04:01:11.761Z,47.37
2023-03-19T04:03:39.236Z,45.57
2023-03-19T04:06:07.084Z,47.40
2023-03-19T04:08:34.386Z,48.90
2023-03-19T04:11:01.705Z,49.17
2023-03-19T04:13:29.349Z,51.70
2023-03-19T04:15:57.335Z,50.50
2023-03-19T04:18:26.266Z,57.43
2023-03-19T04:20:53.719Z,48.23
2023-03-19T04:23:21.009Z,52.50
2023-03-19T04:25:48.316Z,48.13
2023-03-19T04:28:15.755Z,48.70
2023-03-19T04:30:46.057Z,54.03
2023-03-19T04:33:13.644Z,50.83
2023-03-19T04:35:41.517Z,43.27
2023-03-19T04:38:09.065Z,42.93
2023-03-19T04:40:36.619Z,39.07
2023-03-19T04:43:04.283Z,42.20
2023-03-19T04:45:33.650Z,35.63
2023-03-19T04:48:01.697Z,35.83
2023-03-19T04:50:30.784Z,45.07
2023-03-19T04:52:58.298Z,46.90
2023-03-19T04:55:25.947Z,51.07
2023-03-19T04:58:05.262Z,46.10
2023-03-19T05:00:35.384Z,43.87
2023-03-19T05:03:02.991Z,48.73
2023-03-19T05:05:31.975Z,54.20
2023-03-19T05:07:59.605Z,51.17
2023-03-19T05:10:27.330Z,52.63
2023-03-19T05:12:54.773Z,55.07
2023-03-19T05:15:22.519Z,42.93
2023-03-19T05:18:08.650Z,40.60
2023-03-19T05:20:39.398Z,59.07
2023-03-19T05:23:17.949Z,48.93
2023-03-19T05:25:54.641Z,41.53
2023-03-19T05:28:39.943Z,49.33
2023-03-19T05:31:07.334Z,44.33
2023-03-19T05:33:41.888Z,41.50
2023-03-19T05:36:09.885Z,45.40
2023-03-19T05:38:52.398Z,51.57
2023-03-19T05:41:27.013Z,44.53
2023-03-19T05:44:02.197Z,43.67
2023-03-19T05:46:44.849Z,45.10
2023-03-19T05:49:12.775Z,51.77
2023-03-19T05:51:40.069Z,40.33
2023-03-19T05:54:08.991Z,50.63
2023-03-19T05:56:40.438Z,50.10
2023-03-19T05:59:21.590Z,39.53
2023-03-19T06:02:00.972Z,42.73
2023-03-19T06:04:29.059Z,46.10
2023-03-19T06:06:57.170Z,40.47
2023-03-19T06:09:24.670Z,46.40
2023-03-19T06:11:55.864Z,42.87
2023-03-19T06:14:48.033Z,38.80
2023-03-19T06:17:36.005Z,40.50
2023-03-19T06:20:06.724Z,44.80
2023-03-19T06:22:34.060Z,43.97
2023-03-19T06:25:01.543Z,44.07
2023-03-19T06:27:30.685Z,41.00
2023-03-19T06:30:09.800Z,45.83
2023-03-19T06:32:38.683Z,46.07
2023-03-19T06:35:11.274Z,52.63
2023-03-19T06:37:40.247Z,54.70
2023-03-19T06:40:08.042Z,49.00
2023-03-19T06:42:35.355Z,50.30
2023-03-19T06:45:03.030Z,45.67
2023-03-19T06:47:30.461Z,43.23
2023-03-19T06:49:57.907Z,49.53
2023-03-19T06:52:25.405Z,54.33
2023-03-19T06:54:52.708Z,47.83
2023-03-19T06:57:20.024Z,57.40
2023-03-19T06:59:47.333Z,58.83
2023-03-19T07:02:15.282Z,44.97
2023-03-19T07:04:42.760Z,47.83
2023-03-19T07:07:10.051Z,47.37
2023-03-19T07:09:37.886Z,60.10
2023-03-19T07:12:05.291Z,60.87
2023-03-19T07:14:32.699Z,58.20
2023-03-19T07:17:00.412Z,56.00
2023-03-19T07:19:27.863Z,56.47
2023-03-19T07:21:55.202Z,50.43
2023-03-19T07:24:22.667Z,52.70
2023-03-19T07:26:49.951Z,58.47
2023-03-19T07:29:17.773Z,50.80
2023-03-19T07:31:45.240Z,53.13
2023-03-19T07:34:12.979Z,64.37
2023-03-19T07:36:40.258Z,46.67
2023-03-19T07:39:07.606Z,46.67
2023-03-19T07:41:34.898Z,47.53
2023-03-19T07:44:02.383Z,47.80
2023-03-19T07:46:30.142Z,37.23
2023-03-19T07:48:57.469Z,37.37
2023-03-19T07:51:25.378Z,37.33
2023-03-19T07:53:52.753Z,30.50
2023-03-19T07:56:20.098Z,25.50
2023-03-19T07:58:47.506Z,29.93
2023-03-19T08:01:15.483Z,22.17
2023-03-19T08:03:43.224Z,24.37
2023-03-19T08:06:10.615Z,31.40
2023-03-19T08:08:38.007Z,17.27
2023-03-19T08:11:05.425Z,14.82
2023-03-19T08:13:32.732Z,9.07
2023-03-19T08:16:00.439Z,10.47
2023-03-19T08:18:27.864Z,7.83
2023-03-19T08:20:55.624Z,12.53
2023-03-19T08:23:23.300Z,8.80
2023-03-19T08:25:52.119Z,11.77
2023-03-19T08:28:19.841Z,6.87
2023-03-19T08:30:47.330Z,12.00
2023-03-19T08:33:14.752Z,8.03
2023-03-19T08:35:42.129Z,7.47
2023-03-19T08:38:10.523Z,6.10
2023-03-19T08:40:38.096Z,6.17
2023-03-19T08:43:14.764Z,5.80
2023-03-19T08:45:46.696Z,13.13
2023-03-19T08:48:14.113Z,11.33
2023-03-19T08:50:44.659Z,5.53
2023-03-19T08:53:11.955Z,8.83
2023-03-19T08:55:39.412Z,8.67
2023-03-19T08:58:07.052Z,10.90
2023-03-19T09:00:34.550Z,7.30
2023-03-19T09:03:02.060Z,9.93
2023-03-19T09:05:29.876Z,10.10
2023-03-19T09:07:57.239Z,12.47
2023-03-19T09:10:24.546Z,10.17
2023-03-19T09:12:52.023Z,8.43
2023-03-19T09:15:19.338Z,5.27
2023-03-19T09:17:46.654Z,6.63
2023-03-19T09:20:14.036Z,6.53
2023-03-19T09:22:41.342Z,8.87
2023-03-19T09:25:08.968Z,6.70
2023-03-19T09:27:36.292Z,9.77
2023-03-19T09:30:03.826Z,11.10
2023-03-19T09:32:31.579Z,5.17
2023-03-19T09:34:59.118Z,8.53
2023-03-19T09:37:26.390Z,9.20
2023-03-19T09:39:53.662Z,9.23
2023-03-19T09:42:30.989Z,9.13
2023-03-19T09:44:59.568Z,6.13
2023-03-19T09:47:27.031Z,11.63
2023-03-19T09:49:55.755Z,9.83
2023-03-19T09:52:25.780Z,11.83
2023-03-19T09:54:53.543Z,6.60
2023-03-19T09:57:21.488Z,9.50
2023-03-19T09:59:49.198Z,6.10
2023-03-19T10:02:22.599Z,8.40
2023-03-19T10:04:49.937Z,12.07
2023-03-19T10:07:27.595Z,6.87
2023-03-19T10:09:54.914Z,8.17
2023-03-19T10:12:37.522Z,7.33
2023-03-19T10:15:16.582Z,7.57
2023-03-19T10:17:47.942Z,7.17
2023-03-19T10:20:15.654Z,8.93
2023-03-19T10:22:49.579Z,10.60
2023-03-19T10:25:20.962Z,10.97
2023-03-19T10:27:51.410Z,7.30
2023-03-19T10:30:19.911Z,16.90
2023-03-19T10:32:54.595Z,5.87
2023-03-19T10:35:51.604Z,8.23
2023-03-19T10:38:23.147Z,7.60
2023-03-19T10:41:04.987Z,9.80
2023-03-19T10:43:34.834Z,10.30
2023-03-19T10:46:02.276Z,8.07
2023-03-19T10:48:30.787Z,9.77
2023-03-19T10:50:59.783Z,6.03
2023-03-19T10:53:32.775Z,9.27
2023-03-19T10:56:07.794Z,7.77
2023-03-19T10:58:36.358Z,7.77
2023-03-19T11:01:06.494Z,7.27
2023-03-19T11:03:51.216Z,11.57
2023-03-19T11:06:31.774Z,12.97
2023-03-19T11:09:01.196Z,8.70
2023-03-19T11:11:34.696Z,8.60
2023-03-19T11:14:09.320Z,8.43
2023-03-19T11:16:54.850Z,8.87
2023-03-19T11:19:23.986Z,9.80
2023-03-19T11:22:03.569Z,7.77
2023-03-19T11:24:34.520Z,6.53
2023-03-19T11:27:03.351Z,7.23
2023-03-19T11:29:31.277Z,7.30
2023-03-19T11:32:08.637Z,6.40
2023-03-19T11:34:51.342Z,5.63
2023-03-19T11:37:37.497Z,7.13
2023-03-19T11:40:07.935Z,4.63
2023-03-19T11:42:38.640Z,5.93
2023-03-19T11:45:18.194Z,6.37
2023-03-19T11:47:48.959Z,8.60
2023-03-19T11:50:34.431Z,8.20
2023-03-19T11:53:14.190Z,4.27
2023-03-19T11:55:45.692Z,5.10
2023-03-19T11:58:13.016Z,7.37
2023-03-19T12:00:48.007Z,6.53
2023-03-19T12:03:33.809Z,8.77
2023-03-19T12:06:07.571Z,5.23
2023-03-19T12:08:40.687Z,4.33
2023-03-19T12:11:18.355Z,6.63
2023-03-19T12:14:04.494Z,4.57
2023-03-19T12:16:45.755Z,5.97
2023-03-19T12:19:28.244Z,5.83
2023-03-19T12:22:01.923Z,4.83
2023-03-19T12:24:50.487Z,5.67
2023-03-19T12:27:26.312Z,7.80
2023-03-19T12:30:13.350Z,6.03
2023-03-19T12:33:00.994Z,5.73
2023-03-19T12:35:36.125Z,4.10
2023-03-19T12:38:11.587Z,7.93
2023-03-19T12:40:52.642Z,4.33
2023-03-19T12:43:25.157Z,4.50
2023-03-19T12:45:58.258Z,4.60
2023-03-19T12:48:28.554Z,4.83
2023-03-19T12:51:01.886Z,4.67
2023-03-19T12:53:33.947Z,4.10
2023-03-19T12:56:06.023Z,4.63
2023-03-19T12:58:55.882Z,5.00
2023-03-19T13:01:27.174Z,4.77
2023-03-19T13:04:14.788Z,5.43
2023-03-19T13:06:46.167Z,3.90
2023-03-19T13:09:25.701Z,4.63
2023-03-19T13:11:56.111Z,4.00
2023-03-19T13:14:42.137Z,4.30
2023-03-19T13:17:29.667Z,4.27
2023-03-19T13:19:57.077Z,6.43
2023-03-19T13:22:33.955Z,4.93
2023-03-19T13:25:02.536Z,4.30
2023-03-19T13:27:34.549Z,7.60
2023-03-19T13:30:17.251Z,6.83
2023-03-19T13:32:51.924Z,6.17
2023-03-19T13:35:36.588Z,5.70
2023-03-19T13:38:21.057Z,6.37
2023-03-19T13:40:52.774Z,5.83
2023-03-19T13:43:29.568Z,5.67
2023-03-19T13:46:12.453Z,5.90
2023-03-19T13:48:50.344Z,6.13
2023-03-19T13:51:21.755Z,8.77
2023-03-19T13:54:01.986Z,6.40
2023-03-19T13:56:30.696Z,4.83
2023-03-19T13:59:21.717Z,5.53
2023-03-19T14:01:49.056Z,6.37
2023-03-19T14:04:19.391Z,8.87
2023-03-19T14:06:54.991Z,7.90
2023-03-19T14:09:30.064Z,9.07
2023-03-19T14:12:09.255Z,9.50
2023-03-19T14:14:41.157Z,7.77
2023-03-19T14:17:15.419Z,5.80
2023-03-19T14:19:43.317Z,15.10
2023-03-19T14:22:19.418Z,10.47
2023-03-19T14:25:02.892Z,5.87
2023-03-19T14:27:33.218Z,10.23
2023-03-19T14:30:11.837Z,9.77
2023-03-19T14:32:41.003Z,6.60
2023-03-19T14:35:11.193Z,9.23
2023-03-19T14:37:39.457Z,8.13
2023-03-19T14:40:12.543Z,9.40
2023-03-19T14:42:41.183Z,8.30
2023-03-19T14:45:14.747Z,19.23
2023-03-19T14:47:42.153Z,17.80
2023-03-19T14:50:15.763Z,15.47
2023-03-19T14:52:56.825Z,18.83
2023-03-19T14:55:33.388Z,20.00
2023-03-19T14:58:02.197Z,13.83
2023-03-19T15:00:29.496Z,12.87
2023-03-19T15:02:57.132Z,12.43
2023-03-19T15:05:33.207Z,13.97
2023-03-19T15:08:11.487Z,15.93
2023-03-19T15:10:45.551Z,13.67
2023-03-19T15:13:27.781Z,12.90
2023-03-19T15:16:05.070Z,11.43
2023-03-19T15:18:32.501Z,14.10
2023-03-19T15:21:00.423Z,11.97
2023-03-19T15:23:28.914Z,12.57
2023-03-19T15:25:58.061Z,11.93
2023-03-19T15:28:28.052Z,13.97
2023-03-19T15:31:03.413Z,11.30
2023-03-19T15:33:42.138Z,15.43
2023-03-19T15:36:11.379Z,14.57
2023-03-19T15:38:41.424Z,12.97
2023-03-19T15:41:09.556Z,13.90
2023-03-19T15:43:38.771Z,13.67
2023-03-19T15:46:07.353Z,12.13
2023-03-19T15:48:38.233Z,13.07
2023-03-19T15:51:07.409Z,12.63
2023-03-19T15:53:35.610Z,13.80
2023-03-19T15:56:04.073Z,13.03
2023-03-19T15:58:33.134Z,15.87
2023-03-19T16:01:01.746Z,15.67
2023-03-19T16:03:32.534Z,14.33
2023-03-19T16:06:02.848Z,13.40
2023-03-19T16:08:31.706Z,17.77
2023-03-19T16:11:34.827Z,14.00
2023-03-19T16:14:17.283Z,54.80
2023-03-19T16:16:46.843Z,13.30
2023-03-19T16:19:44.051Z,16.43
2023-03-19T16:22:13.708Z,11.47
2023-03-19T16:24:42.547Z,21.00
2023-03-19T16:27:13.169Z,16.20
2023-03-19T16:29:45.307Z,12.47
2023-03-19T16:32:14.398Z,11.33
2023-03-19T16:34:43.509Z,12.47
2023-03-19T16:37:29.673Z,9.73
2023-03-19T16:39:59.005Z,12.13
2023-03-19T16:42:29.550Z,10.37
2023-03-19T16:44:57.418Z,13.00
2023-03-19T16:47:25.811Z,20.03
2023-03-19T16:49:53.221Z,15.90
2023-03-19T16:52:23.112Z,17.23
2023-03-19T16:54:51.840Z,14.50
2023-03-19T16:57:19.709Z,12.87
2023-03-19T16:59:47.949Z,19.17
2023-03-19T17:02:16.676Z,18.17
2023-03-19T17:04:45.426Z,19.10
2023-03-19T17:07:13.117Z,21.43
2023-03-19T17:09:40.995Z,17.00
2023-03-19T17:12:13.679Z,18.03
2023-03-19T17:14:41.687Z,15.40
2023-03-19T17:17:20.338Z,13.77
2023-03-19T17:19:48.109Z,15.23
2023-03-19T17:22:16.173Z,17.97
2023-03-19T17:24:44.462Z,18.43
2023-03-19T17:27:11.871Z,17.40
2023-03-19T17:29:39.783Z,12.83
2023-03-19T17:32:08.732Z,20.43
2023-03-19T17:34:36.842Z,18.23
2023-03-19T17:37:05.315Z,18.17
2023-03-19T17:39:33.768Z,20.47
2023-03-19T17:42:01.615Z,20.70
2023-03-19T17:44:29.649Z,25.00
2023-03-19T17:46:57.738Z,24.17
2023-03-19T17:49:30.099Z,19.93
2023-03-19T17:51:58.114Z,19.47
2023-03-19T17:54:27.216Z,20.90
2023-03-19T17:56:57.608Z,23.37
2023-03-19T17:59:25.842Z,21.47
2023-03-19T18:01:54.177Z,23.60
2023-03-19T18:04:22.874Z,29.77
2023-03-19T18:06:54.528Z,24.70
2023-03-19T18:09:23.595Z,35.07
2023-03-19T18:11:51.148Z,32.23
2023-03-19T18:14:19.522Z,26.13
2023-03-19T18:16:48.086Z,28.00
2023-03-19T18:19:21.177Z,25.53
2023-03-19T18:21:49.196Z,25.67
2023-03-19T18:24:16.966Z,34.37
2023-03-19T18:26:44.600Z,39.60
2023-03-19T18:29:12.720Z,34.97
2023-03-19T18:31:41.441Z,52.37
2023-03-19T18:34:11.382Z,31.13
2023-03-19T18:36:39.056Z,40.13
2023-03-19T18:39:14.192Z,31.77
2023-03-19T18:41:41.850Z,26.87
2023-03-19T18:44:12.348Z,28.33
2023-03-19T18:46:42.932Z,24.83
2023-03-19T18:49:20.119Z,34.53
2023-03-19T18:52:01.123Z,33.63
2023-03-19T18:54:30.923Z,39.33
2023-03-19T18:56:59.877Z,30.17
2023-03-19T18:59:31.092Z,25.90
2023-03-19T19:02:18.126Z,29.20
2023-03-19T19:04:48.188Z,25.43
2023-03-19T19:07:17.398Z,25.10
2023-03-19T19:09:46.230Z,26.77
2023-03-19T19:12:15.496Z,23.17
2023-03-19T19:14:44.092Z,28.27
2023-03-19T19:17:16.347Z,25.93
2023-03-19T19:19:43.710Z,25.23
2023-03-19T19:22:14.942Z,32.40
2023-03-19T19:24:42.735Z,27.43
2023-03-19T19:27:18.066Z,28.07
2023-03-19T19:29:46.197Z,35.67
2023-03-19T19:32:18.804Z,33.30
2023-03-19T19:34:46.140Z,29.63
2023-03-19T19:37:18.736Z,30.10
2023-03-19T19:39:46.543Z,28.23
2023-03-19T19:42:15.476Z,34.70
2023-03-19T19:44:44.616Z,28.90
2023-03-19T19:47:15.885Z,28.40
2023-03-19T19:49:44.472Z,27.03
2023-03-19T19:52:15.617Z,28.53
2023-03-19T19:54:42.988Z,29.73
2023-03-19T19:57:25.017Z,28.03
2023-03-19T19:59:53.407Z,30.83
2023-03-19T20:02:25.381Z,29.10
2023-03-19T20:04:52.754Z,31.43
2023-03-19T20:07:20.589Z,42.03
2023-03-19T20:09:48.380Z,31.70
2023-03-19T20:12:19.232Z,35.17
2023-03-19T20:14:46.953Z,36.53
2023-03-19T20:17:16.359Z,36.67
2023-03-19T20:19:44.446Z,32.00
2023-03-19T20:22:11.885Z,34.67
2023-03-19T20:24:39.812Z,46.63
2023-03-19T20:27:09.850Z,49.67
2023-03-19T20:29:39.777Z,42.80
2023-03-19T20:32:16.056Z,33.97
2023-03-19T20:34:43.438Z,35.60
2023-03-19T20:37:10.995Z,78.83
2023-03-19T20:39:38.433Z,37.07
2023-03-19T20:42:06.197Z,41.10
2023-03-19T20:44:33.882Z,50.30
2023-03-19T20:47:01.289Z,51.50
2023-03-19T20:49:30.869Z,49.17
2023-03-19T20:51:59.487Z,36.30
2023-03-19T20:54:28.166Z,44.10
2023-03-19T20:56:56.001Z,42.30
2023-03-19T20:59:25.767Z,41.00
2023-03-19T21:01:56.306Z,44.67
2023-03-19T21:04:24.317Z,42.87
2023-03-19T21:06:53.965Z,39.43
2023-03-19T21:09:22.111Z,44.27
2023-03-19T21:11:49.702Z,40.80
2023-03-19T21:14:17.562Z,43.37
2023-03-19T21:16:46.593Z,36.97
2023-03-19T21:19:14.244Z,44.13
2023-03-19T21:21:42.863Z,43.40
2023-03-19T21:24:15.702Z,38.27
2023-03-19T21:26:44.608Z,39.93
2023-03-19T21:29:19.919Z,41.20
2023-03-19T21:31:48.093Z,40.00
2023-03-19T21:34:15.757Z,35.33
2023-03-19T21:36:43.180Z,39.30
2023-03-19T21:39:10.912Z,39.50
2023-03-19T21:41:38.749Z,42.40
2023-03-19T21:44:07.900Z,40.80
2023-03-19T21:46:36.788Z,49.20
2023-03-19T21:49:04.234Z,42.10
2023-03-19T21:51:31.621Z,52.03
2023-03-19T21:53:59.288Z,46.10
2023-03-19T21:56:33.299Z,41.87
2023-03-19T21:59:02.209Z,40.03
2023-03-19T22:01:30.885Z,50.60
2023-03-19T22:03:58.707Z,51.93
2023-03-19T22:06:26.567Z,55.43
2023-03-19T22:08:54.831Z,68.40
2023-03-19T22:11:30.362Z,57.17
2023-03-19T22:14:19.003Z,59.97
2023-03-19T22:16:46.873Z,57.30
2023-03-19T22:19:15.063Z,50.90
2023-03-19T22:21:42.687Z,55.67
2023-03-19T22:24:10.184Z,61.63
2023-03-19T22:26:39.366Z,55.73
2023-03-19T22:29:35.967Z,58.00
2023-03-19T22:32:03.466Z,61.57
2023-03-19T22:34:31.458Z,57.00
2023-03-19T22:36:59.627Z,60.17
2023-03-19T22:39:27.047Z,64.77
2023-03-19T22:41:54.531Z,58.27
2023-03-19T22:44:27.549Z,52.60
2023-03-19T22:46:55.241Z,69.17
2023-03-19T22:49:24.599Z,66.93
2023-03-19T22:51:52.115Z,62.60
2023-03-19T22:54:19.477Z,63.73
2023-03-19T22:56:46.909Z,62.10
2023-03-19T22:59:14.532Z,67.57
2023-03-19T23:01:43.823Z,71.80
2023-03-19T23:04:27.741Z,65.27
2023-03-19T23:06:55.963Z,62.20
2023-03-19T23:09:24.687Z,61.87
2023-03-19T23:11:52.617Z,67.87
2023-03-19T23:14:36.031Z,71.30
2023-03-19T23:17:06.648Z,70.83
2023-03-19T23:19:35.585Z,76.27
2023-03-19T23:22:19.067Z,69.93
2023-03-19T23:24:46.778Z,82.63
2023-03-19T23:27:23.425Z,74.57
2023-03-19T23:29:51.110Z,81.57
2023-03-19T23:32:18.511Z,80.43
2023-03-19T23:34:58.049Z,79.13
2023-03-19T23:37:28.814Z,78.87
2023-03-19T23:39:57.612Z,77.17
2023-03-19T23:42:27.817Z,80.73
2023-03-19T23:44:56.931Z,83.00
2023-03-19T23:47:24.380Z,81.17
2023-03-19T23:49:51.773Z,85.57
2023-03-19T23:52:19.168Z,90.30
2023-03-19T23:54:46.688Z,80.07
2023-03-19T23:57:15.532Z,96.80
2023-03-19T23:59:44.770Z,88.27
